sensor_id;sensor_type;location;lat;lon;timestamp;P1;durP1;ratioP1;P2;durP2;ratioP2
67737;SDS011;54534;43.612;1.572;2023-02-07T00:00:42;6.20;;;3.87;;
67737;SDS011;54534;43.612;1.572;2023-02-07T00:03:07;6.87;;;3.73;;
67737;SDS011;54534;43.612;1.572;2023-02-07T00:05:33;6.30;;;4.23;;
67737;SDS011;54534;43.612;1.572;2023-02-07T00:08:00;5.70;;;4.20;;
67737;SDS011;54534;43.612;1.572;2023-02-07T00:10:27;7.57;;;4.00;;
67737;SDS011;54534;43.612;1.572;2023-02-07T00:12:52;5.47;;;3.63;;
67737;SDS011;54534;43.612;1.572;2023-02-07T00:15:17;6.67;;;3.73;;
67737;SDS011;54534;43.612;1.572;2023-02-07T00:17:43;6.73;;;3.97;;
67737;SDS011;54534;43.612;1.572;2023-02-07T00:20:09;6.67;;;4.10;;
67737;SDS011;54534;43.612;1.572;2023-02-07T00:22:35;6.17;;;3.87;;
67737;SDS011;54534;43.612;1.572;2023-02-07T00:25:00;4.13;;;3.43;;
67737;SDS011;54534;43.612;1.572;2023-02-07T00:27:25;4.80;;;3.40;;
67737;SDS011;54534;43.612;1.572;2023-02-07T00:29:51;6.20;;;3.80;;
67737;SDS011;54534;43.612;1.572;2023-02-07T00:32:16;6.87;;;4.00;;
67737;SDS011;54534;43.612;1.572;2023-02-07T00:34:42;7.63;;;4.13;;
67737;SDS011;54534;43.612;1.572;2023-02-07T00:37:10;6.20;;;3.80;;
67737;SDS011;54534;43.612;1.572;2023-02-07T00:39:36;5.77;;;3.40;;
67737;SDS011;54534;43.612;1.572;2023-02-07T00:42:02;4.83;;;3.27;;
67737;SDS011;54534;43.612;1.572;2023-02-07T00:44:28;5.43;;;4.00;;
67737;SDS011;54534;43.612;1.572;2023-02-07T00:46:54;6.07;;;3.30;;
67737;SDS011;54534;43.612;1.572;2023-02-07T00:49:19;8.57;;;4.17;;
67737;SDS011;54534;43.612;1.572;2023-02-07T00:51:45;5.37;;;3.73;;
67737;SDS011;54534;43.612;1.572;2023-02-07T00:54:10;4.73;;;3.23;;
67737;SDS011;54534;43.612;1.572;2023-02-07T00:56:36;7.57;;;3.70;;
67737;SDS011;54534;43.612;1.572;2023-02-07T00:59:01;4.70;;;3.20;;
67737;SDS011;54534;43.612;1.572;2023-02-07T01:01:27;7.13;;;3.40;;
67737;SDS011;54534;43.612;1.572;2023-02-07T01:03:52;5.63;;;3.40;;
67737;SDS011;54534;43.612;1.572;2023-02-07T01:06:19;4.97;;;3.47;;
67737;SDS011;54534;43.612;1.572;2023-02-07T01:08:44;6.43;;;3.33;;
67737;SDS011;54534;43.612;1.572;2023-02-07T01:11:11;6.13;;;3.73;;
67737;SDS011;54534;43.612;1.572;2023-02-07T01:13:41;3.72;;;2.70;;
67737;SDS011;54534;43.612;1.572;2023-02-07T01:16:17;5.10;;;3.23;;
67737;SDS011;54534;43.612;1.572;2023-02-07T01:18:43;4.53;;;3.30;;
67737;SDS011;54534;43.612;1.572;2023-02-07T01:21:16;4.97;;;3.20;;
67737;SDS011;54534;43.612;1.572;2023-02-07T01:23:43;4.77;;;3.13;;
67737;SDS011;54534;43.612;1.572;2023-02-07T01:26:09;4.43;;;3.10;;
67737;SDS011;54534;43.612;1.572;2023-02-07T01:28:34;5.17;;;2.93;;
67737;SDS011;54534;43.612;1.572;2023-02-07T01:31:03;5.80;;;3.87;;
67737;SDS011;54534;43.612;1.572;2023-02-07T01:33:30;4.30;;;2.97;;
67737;SDS011;54534;43.612;1.572;2023-02-07T01:35:57;4.83;;;3.47;;
67737;SDS011;54534;43.612;1.572;2023-02-07T01:38:22;4.80;;;3.40;;
67737;SDS011;54534;43.612;1.572;2023-02-07T01:40:48;4.23;;;3.00;;
67737;SDS011;54534;43.612;1.572;2023-02-07T01:43:17;5.27;;;3.00;;
67737;SDS011;54534;43.612;1.572;2023-02-07T01:45:46;4.67;;;3.37;;
67737;SDS011;54534;43.612;1.572;2023-02-07T01:48:13;4.37;;;3.10;;
67737;SDS011;54534;43.612;1.572;2023-02-07T01:50:42;4.15;;;3.08;;
67737;SDS011;54534;43.612;1.572;2023-02-07T01:53:11;3.67;;;2.65;;
67737;SDS011;54534;43.612;1.572;2023-02-07T01:55:40;6.57;;;3.78;;
67737;SDS011;54534;43.612;1.572;2023-02-07T01:58:06;4.53;;;3.07;;
67737;SDS011;54534;43.612;1.572;2023-02-07T02:00:33;4.93;;;2.87;;
67737;SDS011;54534;43.612;1.572;2023-02-07T02:02:59;4.17;;;3.10;;
67737;SDS011;54534;43.612;1.572;2023-02-07T02:05:26;4.40;;;3.03;;
67737;SDS011;54534;43.612;1.572;2023-02-07T02:07:53;4.53;;;3.10;;
67737;SDS011;54534;43.612;1.572;2023-02-07T02:10:21;3.63;;;3.10;;
67737;SDS011;54534;43.612;1.572;2023-02-07T02:15:51;4.63;;;2.90;;
67737;SDS011;54534;43.612;1.572;2023-02-07T02:32:31;3.10;;;2.73;;
67737;SDS011;54534;43.612;1.572;2023-02-07T02:35:07;4.30;;;3.00;;
67737;SDS011;54534;43.612;1.572;2023-02-07T02:40:57;5.30;;;2.73;;
67737;SDS011;54534;43.612;1.572;2023-02-07T02:43:44;3.43;;;2.87;;
67737;SDS011;54534;43.612;1.572;2023-02-07T02:46:19;3.83;;;2.67;;
67737;SDS011;54534;43.612;1.572;2023-02-07T02:48:47;3.27;;;2.47;;
67737;SDS011;54534;43.612;1.572;2023-02-07T02:51:14;5.30;;;3.03;;
67737;SDS011;54534;43.612;1.572;2023-02-07T02:53:39;4.03;;;3.00;;
67737;SDS011;54534;43.612;1.572;2023-02-07T02:56:13;4.20;;;3.00;;
67737;SDS011;54534;43.612;1.572;2023-02-07T03:16:01;4.40;;;3.30;;
67737;SDS011;54534;43.612;1.572;2023-02-07T03:21:20;5.23;;;3.33;;
67737;SDS011;54534;43.612;1.572;2023-02-07T03:23:51;5.50;;;3.97;;
67737;SDS011;54534;43.612;1.572;2023-02-07T03:26:20;5.88;;;3.60;;
67737;SDS011;54534;43.612;1.572;2023-02-07T03:28:48;5.00;;;3.53;;
67737;SDS011;54534;43.612;1.572;2023-02-07T03:31:16;5.00;;;3.27;;
67737;SDS011;54534;43.612;1.572;2023-02-07T03:33:46;7.80;;;3.72;;
67737;SDS011;54534;43.612;1.572;2023-02-07T03:36:20;3.58;;;2.92;;
67737;SDS011;54534;43.612;1.572;2023-02-07T03:38:51;5.23;;;3.70;;
67737;SDS011;54534;43.612;1.572;2023-02-07T03:41:25;5.07;;;3.70;;
67737;SDS011;54534;43.612;1.572;2023-02-07T03:43:54;4.40;;;3.23;;
67737;SDS011;54534;43.612;1.572;2023-02-07T03:46:24;4.40;;;3.43;;
67737;SDS011;54534;43.612;1.572;2023-02-07T03:48:49;5.17;;;3.50;;
67737;SDS011;54534;43.612;1.572;2023-02-07T03:51:15;5.90;;;3.93;;
67737;SDS011;54534;43.612;1.572;2023-02-07T03:53:40;3.67;;;3.30;;
67737;SDS011;54534;43.612;1.572;2023-02-07T03:56:05;5.57;;;4.03;;
67737;SDS011;54534;43.612;1.572;2023-02-07T03:58:31;4.97;;;3.77;;
67737;SDS011;54534;43.612;1.572;2023-02-07T04:00:56;5.80;;;3.67;;
67737;SDS011;54534;43.612;1.572;2023-02-07T04:03:22;5.60;;;3.90;;
67737;SDS011;54534;43.612;1.572;2023-02-07T04:05:47;4.83;;;3.90;;
67737;SDS011;54534;43.612;1.572;2023-02-07T04:08:13;4.63;;;3.47;;
67737;SDS011;54534;43.612;1.572;2023-02-07T04:10:39;5.47;;;3.80;;
67737;SDS011;54534;43.612;1.572;2023-02-07T04:13:04;4.50;;;3.80;;
67737;SDS011;54534;43.612;1.572;2023-02-07T04:15:30;6.57;;;3.87;;
67737;SDS011;54534;43.612;1.572;2023-02-07T04:17:55;7.00;;;4.57;;
67737;SDS011;54534;43.612;1.572;2023-02-07T04:20:21;5.03;;;3.37;;
67737;SDS011;54534;43.612;1.572;2023-02-07T04:22:46;6.10;;;3.97;;
67737;SDS011;54534;43.612;1.572;2023-02-07T04:25:12;4.03;;;3.33;;
67737;SDS011;54534;43.612;1.572;2023-02-07T04:27:37;4.77;;;3.83;;
67737;SDS011;54534;43.612;1.572;2023-02-07T04:30:03;5.27;;;3.37;;
67737;SDS011;54534;43.612;1.572;2023-02-07T04:32:28;5.47;;;3.53;;
67737;SDS011;54534;43.612;1.572;2023-02-07T04:34:54;4.47;;;3.33;;
67737;SDS011;54534;43.612;1.572;2023-02-07T04:37:19;4.97;;;3.40;;
67737;SDS011;54534;43.612;1.572;2023-02-07T04:39:44;5.37;;;3.60;;
67737;SDS011;54534;43.612;1.572;2023-02-07T04:42:10;5.40;;;3.53;;
67737;SDS011;54534;43.612;1.572;2023-02-07T04:44:37;5.50;;;3.87;;
67737;SDS011;54534;43.612;1.572;2023-02-07T04:47:02;4.67;;;3.70;;
67737;SDS011;54534;43.612;1.572;2023-02-07T04:49:28;4.63;;;3.93;;
67737;SDS011;54534;43.612;1.572;2023-02-07T04:51:53;4.53;;;3.47;;
67737;SDS011;54534;43.612;1.572;2023-02-07T04:54:18;4.40;;;3.57;;
67737;SDS011;54534;43.612;1.572;2023-02-07T04:56:44;4.00;;;3.13;;
67737;SDS011;54534;43.612;1.572;2023-02-07T04:59:09;4.60;;;3.60;;
67737;SDS011;54534;43.612;1.572;2023-02-07T05:01:35;4.33;;;3.43;;
67737;SDS011;54534;43.612;1.572;2023-02-07T05:04:00;4.97;;;3.60;;
67737;SDS011;54534;43.612;1.572;2023-02-07T05:06:25;4.43;;;3.47;;
67737;SDS011;54534;43.612;1.572;2023-02-07T05:08:51;5.03;;;3.87;;
67737;SDS011;54534;43.612;1.572;2023-02-07T05:11:16;4.23;;;3.53;;
67737;SDS011;54534;43.612;1.572;2023-02-07T05:13:42;3.80;;;3.37;;
67737;SDS011;54534;43.612;1.572;2023-02-07T05:16:07;4.70;;;3.63;;
67737;SDS011;54534;43.612;1.572;2023-02-07T05:18:33;5.83;;;4.00;;
67737;SDS011;54534;43.612;1.572;2023-02-07T05:20:58;4.90;;;3.27;;
67737;SDS011;54534;43.612;1.572;2023-02-07T05:23:24;4.17;;;3.50;;
67737;SDS011;54534;43.612;1.572;2023-02-07T05:25:49;4.67;;;3.60;;
67737;SDS011;54534;43.612;1.572;2023-02-07T05:28:15;4.27;;;3.57;;
67737;SDS011;54534;43.612;1.572;2023-02-07T05:30:40;5.20;;;3.10;;
67737;SDS011;54534;43.612;1.572;2023-02-07T05:33:06;4.90;;;3.90;;
67737;SDS011;54534;43.612;1.572;2023-02-07T05:35:42;4.30;;;3.50;;
67737;SDS011;54534;43.612;1.572;2023-02-07T05:38:12;4.27;;;3.50;;
67737;SDS011;54534;43.612;1.572;2023-02-07T05:40:40;5.00;;;3.50;;
67737;SDS011;54534;43.612;1.572;2023-02-07T05:43:06;3.97;;;3.20;;
67737;SDS011;54534;43.612;1.572;2023-02-07T05:45:33;5.77;;;3.70;;
67737;SDS011;54534;43.612;1.572;2023-02-07T05:47:58;4.10;;;3.70;;
67737;SDS011;54534;43.612;1.572;2023-02-07T05:50:24;4.60;;;3.50;;
67737;SDS011;54534;43.612;1.572;2023-02-07T05:52:49;4.73;;;3.80;;
67737;SDS011;54534;43.612;1.572;2023-02-07T05:55:15;7.97;;;3.60;;
67737;SDS011;54534;43.612;1.572;2023-02-07T05:57:41;13.23;;;3.47;;
67737;SDS011;54534;43.612;1.572;2023-02-07T06:00:08;9.50;;;3.07;;
67737;SDS011;54534;43.612;1.572;2023-02-07T06:02:36;9.63;;;3.58;;
67737;SDS011;54534;43.612;1.572;2023-02-07T06:05:03;6.00;;;3.50;;
67737;SDS011;54534;43.612;1.572;2023-02-07T06:07:28;7.13;;;3.80;;
67737;SDS011;54534;43.612;1.572;2023-02-07T06:09:53;7.17;;;3.40;;
67737;SDS011;54534;43.612;1.572;2023-02-07T06:12:19;6.20;;;3.13;;
67737;SDS011;54534;43.612;1.572;2023-02-07T06:14:44;15.37;;;3.43;;
67737;SDS011;54534;43.612;1.572;2023-02-07T06:17:10;5.37;;;3.60;;
67737;SDS011;54534;43.612;1.572;2023-02-07T06:19:35;3.90;;;3.07;;
67737;SDS011;54534;43.612;1.572;2023-02-07T06:22:00;8.57;;;3.53;;
67737;SDS011;54534;43.612;1.572;2023-02-07T06:24:26;7.33;;;3.60;;
67737;SDS011;54534;43.612;1.572;2023-02-07T06:26:51;10.53;;;3.80;;
67737;SDS011;54534;43.612;1.572;2023-02-07T06:29:17;4.43;;;3.40;;
67737;SDS011;54534;43.612;1.572;2023-02-07T06:31:42;6.73;;;4.00;;
67737;SDS011;54534;43.612;1.572;2023-02-07T06:34:08;4.63;;;3.40;;
67737;SDS011;54534;43.612;1.572;2023-02-07T06:36:33;7.87;;;4.00;;
67737;SDS011;54534;43.612;1.572;2023-02-07T06:38:58;8.23;;;3.73;;
67737;SDS011;54534;43.612;1.572;2023-02-07T06:41:24;4.13;;;3.23;;
67737;SDS011;54534;43.612;1.572;2023-02-07T06:43:49;7.97;;;3.23;;
67737;SDS011;54534;43.612;1.572;2023-02-07T06:46:15;9.13;;;3.63;;
67737;SDS011;54534;43.612;1.572;2023-02-07T06:48:40;4.93;;;3.20;;
67737;SDS011;54534;43.612;1.572;2023-02-07T06:51:06;7.40;;;3.60;;
67737;SDS011;54534;43.612;1.572;2023-02-07T06:53:31;8.60;;;3.00;;
67737;SDS011;54534;43.612;1.572;2023-02-07T06:55:57;5.47;;;3.13;;
67737;SDS011;54534;43.612;1.572;2023-02-07T06:58:22;6.47;;;3.20;;
67737;SDS011;54534;43.612;1.572;2023-02-07T07:00:48;5.37;;;2.90;;
67737;SDS011;54534;43.612;1.572;2023-02-07T07:03:13;23.90;;;3.37;;
67737;SDS011;54534;43.612;1.572;2023-02-07T07:05:40;4.47;;;3.33;;
67737;SDS011;54534;43.612;1.572;2023-02-07T07:08:06;4.20;;;2.60;;
67737;SDS011;54534;43.612;1.572;2023-02-07T07:10:32;5.43;;;3.40;;
67737;SDS011;54534;43.612;1.572;2023-02-07T07:12:57;4.80;;;2.60;;
67737;SDS011;54534;43.612;1.572;2023-02-07T07:15:23;8.77;;;3.23;;
67737;SDS011;54534;43.612;1.572;2023-02-07T07:17:48;5.30;;;3.20;;
67737;SDS011;54534;43.612;1.572;2023-02-07T07:20:14;15.13;;;3.10;;
67737;SDS011;54534;43.612;1.572;2023-02-07T07:22:39;8.17;;;2.70;;
67737;SDS011;54534;43.612;1.572;2023-02-07T07:25:05;12.27;;;2.80;;
67737;SDS011;54534;43.612;1.572;2023-02-07T07:27:31;13.77;;;3.90;;
67737;SDS011;54534;43.612;1.572;2023-02-07T07:29:56;6.50;;;2.80;;
67737;SDS011;54534;43.612;1.572;2023-02-07T07:32:21;4.87;;;3.30;;
67737;SDS011;54534;43.612;1.572;2023-02-07T07:34:47;4.90;;;2.63;;
67737;SDS011;54534;43.612;1.572;2023-02-07T07:37:14;8.57;;;2.80;;
67737;SDS011;54534;43.612;1.572;2023-02-07T07:39:40;4.97;;;2.60;;
67737;SDS011;54534;43.612;1.572;2023-02-07T07:42:06;4.77;;;2.73;;
67737;SDS011;54534;43.612;1.572;2023-02-07T07:44:31;6.00;;;3.10;;
67737;SDS011;54534;43.612;1.572;2023-02-07T07:46:57;6.70;;;2.93;;
67737;SDS011;54534;43.612;1.572;2023-02-07T07:49:22;5.87;;;2.70;;
67737;SDS011;54534;43.612;1.572;2023-02-07T07:51:48;4.53;;;2.70;;
67737;SDS011;54534;43.612;1.572;2023-02-07T07:54:14;5.47;;;3.00;;
67737;SDS011;54534;43.612;1.572;2023-02-07T07:56:40;4.50;;;2.70;;
67737;SDS011;54534;43.612;1.572;2023-02-07T07:59:05;3.57;;;2.53;;
67737;SDS011;54534;43.612;1.572;2023-02-07T08:01:30;4.13;;;2.50;;
67737;SDS011;54534;43.612;1.572;2023-02-07T08:03:56;6.10;;;2.87;;
67737;SDS011;54534;43.612;1.572;2023-02-07T08:06:21;4.83;;;2.77;;
67737;SDS011;54534;43.612;1.572;2023-02-07T08:08:47;7.17;;;2.57;;
67737;SDS011;54534;43.612;1.572;2023-02-07T08:11:12;2.80;;;2.47;;
67737;SDS011;54534;43.612;1.572;2023-02-07T08:13:38;3.80;;;2.30;;
67737;SDS011;54534;43.612;1.572;2023-02-07T08:16:03;4.30;;;2.37;;
67737;SDS011;54534;43.612;1.572;2023-02-07T08:18:37;3.23;;;2.67;;
67737;SDS011;54534;43.612;1.572;2023-02-07T08:21:02;4.43;;;2.37;;
67737;SDS011;54534;43.612;1.572;2023-02-07T08:23:28;3.47;;;2.10;;
67737;SDS011;54534;43.612;1.572;2023-02-07T08:25:53;4.20;;;2.50;;
67737;SDS011;54534;43.612;1.572;2023-02-07T08:28:19;3.53;;;2.60;;
67737;SDS011;54534;43.612;1.572;2023-02-07T08:30:45;2.57;;;2.10;;
67737;SDS011;54534;43.612;1.572;2023-02-07T08:33:11;4.20;;;2.90;;
67737;SDS011;54534;43.612;1.572;2023-02-07T08:35:38;3.50;;;2.33;;
67737;SDS011;54534;43.612;1.572;2023-02-07T08:38:04;3.23;;;2.30;;
67737;SDS011;54534;43.612;1.572;2023-02-07T08:40:29;3.57;;;2.40;;
67737;SDS011;54534;43.612;1.572;2023-02-07T08:42:55;4.13;;;2.50;;
67737;SDS011;54534;43.612;1.572;2023-02-07T08:45:20;3.73;;;2.63;;
67737;SDS011;54534;43.612;1.572;2023-02-07T08:47:45;5.07;;;2.10;;
67737;SDS011;54534;43.612;1.572;2023-02-07T08:50:14;3.07;;;2.37;;
67737;SDS011;54534;43.612;1.572;2023-02-07T08:52:40;3.13;;;2.40;;
67737;SDS011;54534;43.612;1.572;2023-02-07T08:55:06;2.40;;;2.00;;
67737;SDS011;54534;43.612;1.572;2023-02-07T08:57:32;2.50;;;2.30;;
67737;SDS011;54534;43.612;1.572;2023-02-07T08:59:58;4.60;;;2.37;;
67737;SDS011;54534;43.612;1.572;2023-02-07T09:02:24;4.80;;;2.33;;
67737;SDS011;54534;43.612;1.572;2023-02-07T09:04:50;5.40;;;2.20;;
67737;SDS011;54534;43.612;1.572;2023-02-07T09:07:16;2.23;;;2.00;;
67737;SDS011;54534;43.612;1.572;2023-02-07T09:09:43;3.20;;;2.13;;
67737;SDS011;54534;43.612;1.572;2023-02-07T09:12:08;2.53;;;2.33;;
67737;SDS011;54534;43.612;1.572;2023-02-07T09:14:35;1.97;;;1.87;;
67737;SDS011;54534;43.612;1.572;2023-02-07T09:17:01;2.60;;;2.00;;
67737;SDS011;54534;43.612;1.572;2023-02-07T09:19:26;3.70;;;2.33;;
67737;SDS011;54534;43.612;1.572;2023-02-07T09:21:52;3.33;;;2.57;;
67737;SDS011;54534;43.612;1.572;2023-02-07T09:24:17;3.43;;;2.33;;
67737;SDS011;54534;43.612;1.572;2023-02-07T09:26:43;3.90;;;2.47;;
67737;SDS011;54534;43.612;1.572;2023-02-07T09:29:14;2.93;;;2.33;;
67737;SDS011;54534;43.612;1.572;2023-02-07T09:31:40;3.57;;;2.23;;
67737;SDS011;54534;43.612;1.572;2023-02-07T09:34:06;2.13;;;1.93;;
67737;SDS011;54534;43.612;1.572;2023-02-07T09:36:32;2.40;;;2.10;;
67737;SDS011;54534;43.612;1.572;2023-02-07T09:38:58;2.60;;;1.90;;
67737;SDS011;54534;43.612;1.572;2023-02-07T09:46:32;2.60;;;2.17;;
67737;SDS011;54534;43.612;1.572;2023-02-07T09:49:08;4.43;;;2.20;;
67737;SDS011;54534;43.612;1.572;2023-02-07T09:51:45;2.83;;;2.20;;
67737;SDS011;54534;43.612;1.572;2023-02-07T09:56:50;2.63;;;2.00;;
67737;SDS011;54534;43.612;1.572;2023-02-07T09:59:32;2.65;;;2.10;;
67737;SDS011;54534;43.612;1.572;2023-02-07T10:02:24;3.55;;;2.10;;
67737;SDS011;54534;43.612;1.572;2023-02-07T10:05:01;3.50;;;2.20;;
67737;SDS011;54534;43.612;1.572;2023-02-07T10:07:31;2.73;;;2.00;;
67737;SDS011;54534;43.612;1.572;2023-02-07T10:09:57;2.30;;;2.10;;
67737;SDS011;54534;43.612;1.572;2023-02-07T10:12:32;2.37;;;1.87;;
67737;SDS011;54534;43.612;1.572;2023-02-07T10:31:55;2.30;;;2.00;;
67737;SDS011;54534;43.612;1.572;2023-02-07T10:37:01;2.87;;;2.07;;
67737;SDS011;54534;43.612;1.572;2023-02-07T10:42:15;2.07;;;1.67;;
67737;SDS011;54534;43.612;1.572;2023-02-07T10:44:41;4.20;;;1.63;;
67737;SDS011;54534;43.612;1.572;2023-02-07T10:47:08;2.27;;;1.83;;
67737;SDS011;54534;43.612;1.572;2023-02-07T10:49:38;1.97;;;1.60;;
67737;SDS011;54534;43.612;1.572;2023-02-07T10:54:53;1.97;;;1.83;;
67737;SDS011;54534;43.612;1.572;2023-02-07T10:57:20;1.77;;;1.67;;
67737;SDS011;54534;43.612;1.572;2023-02-07T10:59:46;1.43;;;1.33;;
67737;SDS011;54534;43.612;1.572;2023-02-07T11:05:00;1.50;;;1.40;;
67737;SDS011;54534;43.612;1.572;2023-02-07T11:07:27;1.50;;;1.40;;
67737;SDS011;54534;43.612;1.572;2023-02-07T11:12:57;3.00;;;1.47;;
67737;SDS011;54534;43.612;1.572;2023-02-07T11:18:18;1.70;;;1.60;;
67737;SDS011;54534;43.612;1.572;2023-02-07T11:23:48;1.95;;;1.50;;
67737;SDS011;54534;43.612;1.572;2023-02-07T11:26:16;1.50;;;1.40;;
67737;SDS011;54534;43.612;1.572;2023-02-07T11:28:43;1.60;;;1.50;;
67737;SDS011;54534;43.612;1.572;2023-02-07T11:31:11;1.60;;;1.50;;
67737;SDS011;54534;43.612;1.572;2023-02-07T11:33:40;2.33;;;1.60;;
67737;SDS011;54534;43.612;1.572;2023-02-07T11:38:45;2.07;;;1.50;;
67737;SDS011;54534;43.612;1.572;2023-02-07T11:41:31;1.57;;;1.47;;
67737;SDS011;54534;43.612;1.572;2023-02-07T11:43:58;1.40;;;1.30;;
67737;SDS011;54534;43.612;1.572;2023-02-07T11:46:36;1.67;;;1.40;;
67737;SDS011;54534;43.612;1.572;2023-02-07T11:49:06;1.23;;;1.08;;
67737;SDS011;54534;43.612;1.572;2023-02-07T11:51:44;1.33;;;1.23;;
67737;SDS011;54534;43.612;1.572;2023-02-07T11:54:10;2.23;;;1.10;;
67737;SDS011;54534;43.612;1.572;2023-02-07T11:56:39;1.27;;;1.17;;
67737;SDS011;54534;43.612;1.572;2023-02-07T11:59:19;1.30;;;1.20;;
67737;SDS011;54534;43.612;1.572;2023-02-07T12:01:50;1.00;;;1.00;;
67737;SDS011;54534;43.612;1.572;2023-02-07T12:04:19;1.23;;;1.13;;
67737;SDS011;54534;43.612;1.572;2023-02-07T12:06:52;1.20;;;1.10;;
67737;SDS011;54534;43.612;1.572;2023-02-07T12:15:49;1.47;;;1.37;;
67737;SDS011;54534;43.612;1.572;2023-02-07T12:20:37;1.17;;;1.17;;
67737;SDS011;54534;43.612;1.572;2023-02-07T12:25:36;1.30;;;1.20;;
67737;SDS011;54534;43.612;1.572;2023-02-07T12:28:12;1.13;;;1.10;;
67737;SDS011;54534;43.612;1.572;2023-02-07T12:30:46;0.85;;;0.85;;
67737;SDS011;54534;43.612;1.572;2023-02-07T12:33:29;1.23;;;1.10;;
67737;SDS011;54534;43.612;1.572;2023-02-07T12:38:29;1.20;;;1.10;;
67737;SDS011;54534;43.612;1.572;2023-02-07T12:41:04;1.30;;;1.17;;
67737;SDS011;54534;43.612;1.572;2023-02-07T12:43:39;1.43;;;1.10;;
67737;SDS011;54534;43.612;1.572;2023-02-07T12:52:11;1.37;;;1.17;;
67737;SDS011;54534;43.612;1.572;2023-02-07T12:56:59;1.10;;;1.00;;
67737;SDS011;54534;43.612;1.572;2023-02-07T13:05:10;1.97;;;0.97;;
67737;SDS011;54534;43.612;1.572;2023-02-07T13:08:10;1.40;;;1.30;;
67737;SDS011;54534;43.612;1.572;2023-02-07T13:13:47;1.23;;;1.13;;
67737;SDS011;54534;43.612;1.572;2023-02-07T13:16:26;1.73;;;1.03;;
67737;SDS011;54534;43.612;1.572;2023-02-07T13:22:00;1.20;;;1.10;;
67737;SDS011;54534;43.612;1.572;2023-02-07T13:24:24;0.80;;;0.80;;
67737;SDS011;54534;43.612;1.572;2023-02-07T13:26:53;1.20;;;0.90;;
67737;SDS011;54534;43.612;1.572;2023-02-07T13:29:22;1.80;;;1.33;;
67737;SDS011;54534;43.612;1.572;2023-02-07T13:31:52;1.07;;;0.97;;
67737;SDS011;54534;43.612;1.572;2023-02-07T13:34:22;1.23;;;1.00;;
67737;SDS011;54534;43.612;1.572;2023-02-07T13:36:50;0.90;;;0.90;;
67737;SDS011;54534;43.612;1.572;2023-02-07T13:39:18;1.10;;;1.00;;
67737;SDS011;54534;43.612;1.572;2023-02-07T13:50:35;0.70;;;0.70;;
67737;SDS011;54534;43.612;1.572;2023-02-07T13:56:08;0.83;;;0.60;;
67737;SDS011;54534;43.612;1.572;2023-02-07T13:58:55;0.83;;;0.80;;
67737;SDS011;54534;43.612;1.572;2023-02-07T14:01:49;0.80;;;0.80;;
67737;SDS011;54534;43.612;1.572;2023-02-07T14:04:17;0.63;;;0.60;;
67737;SDS011;54534;43.612;1.572;2023-02-07T14:12:03;0.80;;;0.80;;
67737;SDS011;54534;43.612;1.572;2023-02-07T14:14:37;0.80;;;0.80;;
67737;SDS011;54534;43.612;1.572;2023-02-07T14:17:11;0.70;;;0.70;;
67737;SDS011;54534;43.612;1.572;2023-02-07T14:27:32;0.80;;;0.80;;
67737;SDS011;54534;43.612;1.572;2023-02-07T14:32:48;0.70;;;0.70;;
67737;SDS011;54534;43.612;1.572;2023-02-07T14:41:06;0.80;;;0.80;;
67737;SDS011;54534;43.612;1.572;2023-02-07T14:43:53;0.87;;;0.70;;
67737;SDS011;54534;43.612;1.572;2023-02-07T14:46:27;0.70;;;0.70;;
67737;SDS011;54534;43.612;1.572;2023-02-07T14:49:00;0.80;;;0.80;;
67737;SDS011;54534;43.612;1.572;2023-02-07T14:53:56;0.70;;;0.70;;
67737;SDS011;54534;43.612;1.572;2023-02-07T14:56:46;1.48;;;0.60;;
67737;SDS011;54534;43.612;1.572;2023-02-07T14:59:23;0.60;;;0.60;;
67737;SDS011;54534;43.612;1.572;2023-02-07T15:04:54;0.60;;;0.60;;
67737;SDS011;54534;43.612;1.572;2023-02-07T15:07:20;0.50;;;0.50;;
67737;SDS011;54534;43.612;1.572;2023-02-07T15:09:46;0.53;;;0.53;;
67737;SDS011;54534;43.612;1.572;2023-02-07T15:12:12;0.60;;;0.60;;
67737;SDS011;54534;43.612;1.572;2023-02-07T15:14:47;0.80;;;0.67;;
67737;SDS011;54534;43.612;1.572;2023-02-07T15:17:13;0.70;;;0.70;;
67737;SDS011;54534;43.612;1.572;2023-02-07T15:19:45;0.83;;;0.70;;
67737;SDS011;54534;43.612;1.572;2023-02-07T15:22:18;0.63;;;0.60;;
67737;SDS011;54534;43.612;1.572;2023-02-07T15:24:56;1.13;;;0.97;;
67737;SDS011;54534;43.612;1.572;2023-02-07T15:27:26;0.70;;;0.70;;
67737;SDS011;54534;43.612;1.572;2023-02-07T15:32:27;0.60;;;0.60;;
67737;SDS011;54534;43.612;1.572;2023-02-07T15:34:58;0.53;;;0.53;;
67737;SDS011;54534;43.612;1.572;2023-02-07T15:37:36;0.70;;;0.70;;
67737;SDS011;54534;43.612;1.572;2023-02-07T15:40:02;0.87;;;0.67;;
67737;SDS011;54534;43.612;1.572;2023-02-07T15:42:28;1.10;;;0.70;;
67737;SDS011;54534;43.612;1.572;2023-02-07T15:44:54;1.40;;;0.80;;
67737;SDS011;54534;43.612;1.572;2023-02-07T15:52:41;0.83;;;0.80;;
67737;SDS011;54534;43.612;1.572;2023-02-07T15:55:14;0.80;;;0.80;;
67737;SDS011;54534;43.612;1.572;2023-02-07T15:57:44;1.07;;;0.90;;
67737;SDS011;54534;43.612;1.572;2023-02-07T16:02:57;1.10;;;0.73;;
67737;SDS011;54534;43.612;1.572;2023-02-07T16:08:03;0.80;;;0.80;;
67737;SDS011;54534;43.612;1.572;2023-02-07T16:10:35;0.80;;;0.80;;
67737;SDS011;54534;43.612;1.572;2023-02-07T16:15:34;0.80;;;0.70;;
67737;SDS011;54534;43.612;1.572;2023-02-07T16:18:02;0.87;;;0.87;;
67737;SDS011;54534;43.612;1.572;2023-02-07T16:20:30;0.80;;;0.80;;
67737;SDS011;54534;43.612;1.572;2023-02-07T16:22:59;0.80;;;0.80;;
67737;SDS011;54534;43.612;1.572;2023-02-07T16:25:31;0.70;;;0.70;;
67737;SDS011;54534;43.612;1.572;2023-02-07T16:27:58;0.87;;;0.87;;
67737;SDS011;54534;43.612;1.572;2023-02-07T16:30:35;1.70;;;0.80;;
67737;SDS011;54534;43.612;1.572;2023-02-07T16:33:03;0.90;;;0.80;;
67737;SDS011;54534;43.612;1.572;2023-02-07T16:35:32;1.37;;;0.87;;
67737;SDS011;54534;43.612;1.572;2023-02-07T16:37:58;1.60;;;0.93;;
67737;SDS011;54534;43.612;1.572;2023-02-07T16:40:23;0.77;;;0.77;;
67737;SDS011;54534;43.612;1.572;2023-02-07T16:42:51;1.50;;;0.90;;
67737;SDS011;54534;43.612;1.572;2023-02-07T16:45:25;2.47;;;0.90;;
67737;SDS011;54534;43.612;1.572;2023-02-07T16:47:51;1.50;;;1.10;;
67737;SDS011;54534;43.612;1.572;2023-02-07T16:50:18;1.37;;;0.90;;
67737;SDS011;54534;43.612;1.572;2023-02-07T16:52:46;1.67;;;0.93;;
67737;SDS011;54534;43.612;1.572;2023-02-07T16:55:13;0.93;;;0.87;;
67737;SDS011;54534;43.612;1.572;2023-02-07T16:57:40;1.87;;;1.00;;
67737;SDS011;54534;43.612;1.572;2023-02-07T17:00:07;1.10;;;0.80;;
67737;SDS011;54534;43.612;1.572;2023-02-07T17:02:36;1.52;;;0.90;;
67737;SDS011;54534;43.612;1.572;2023-02-07T17:05:02;2.67;;;1.27;;
67737;SDS011;54534;43.612;1.572;2023-02-07T17:07:28;2.37;;;1.10;;
67737;SDS011;54534;43.612;1.572;2023-02-07T17:09:54;3.07;;;1.10;;
67737;SDS011;54534;43.612;1.572;2023-02-07T17:12:20;1.40;;;1.30;;
67737;SDS011;54534;43.612;1.572;2023-02-07T17:14:45;2.93;;;1.40;;
67737;SDS011;54534;43.612;1.572;2023-02-07T17:17:13;1.30;;;0.97;;
67737;SDS011;54534;43.612;1.572;2023-02-07T17:19:38;2.27;;;1.10;;
67737;SDS011;54534;43.612;1.572;2023-02-07T17:22:04;1.93;;;1.20;;
67737;SDS011;54534;43.612;1.572;2023-02-07T17:24:29;1.90;;;1.10;;
67737;SDS011;54534;43.612;1.572;2023-02-07T17:26:55;1.87;;;1.40;;
67737;SDS011;54534;43.612;1.572;2023-02-07T17:29:22;1.93;;;0.90;;
67737;SDS011;54534;43.612;1.572;2023-02-07T17:31:48;1.53;;;1.07;;
67737;SDS011;54534;43.612;1.572;2023-02-07T17:34:14;1.23;;;1.10;;
67737;SDS011;54534;43.612;1.572;2023-02-07T17:36:41;2.73;;;1.33;;
67737;SDS011;54534;43.612;1.572;2023-02-07T17:39:11;2.53;;;1.43;;
67737;SDS011;54534;43.612;1.572;2023-02-07T17:41:37;2.83;;;1.30;;
67737;SDS011;54534;43.612;1.572;2023-02-07T17:44:03;2.37;;;1.20;;
67737;SDS011;54534;43.612;1.572;2023-02-07T17:46:28;2.20;;;1.20;;
67737;SDS011;54534;43.612;1.572;2023-02-07T17:48:54;2.33;;;1.50;;